Time;durP1;ratioP1;P1;durP2;ratioP2;P2;SDS_P1;SDS_P2;PMS_P1;PMS_P2;Temp;Humidity;BMP_temperature;BMP_pressure;BME280_temperature;BME280_humidity;BME280_pressure;Samples;Min_cycle;Max_cycle;Signal;HPM_P1;HPM_P2
2022/03/17 00:00:10;;;;;;;25.08;19.60;;;11.70;95.00;;;;;;5050943;28;20512;-87
2022/03/17 00:02:36;;;;;;;23.77;18.88;;;11.70;95.10;;;;;;5051299;28;20127;-87
2022/03/17 00:05:04;;;;;;;26.48;20.02;;;11.60;95.10;;;;;;5050995;28;20129;-87
2022/03/17 00:07:30;;;;;;;26.58;21.45;;;11.60;95.30;;;;;;5051051;28;20052;-87
2022/03/17 00:09:56;;;;;;;25.27;19.70;;;11.60;95.40;;;;;;5033967;28;20041;-88
2022/03/17 00:12:22;;;;;;;26.48;20.08;;;11.60;95.40;;;;;;5050834;28;20098;-87
2022/03/17 00:14:48;;;;;;;25.95;21.52;;;11.60;95.40;;;;;;5050679;28;20072;-87
2022/03/17 00:17:13;;;;;;;24.92;20.67;;;11.60;95.50;;;;;;5050796;28;20036;-87
2022/03/17 00:19:39;;;;;;;27.10;20.35;;;11.60;95.60;;;;;;5050337;28;20068;-87
2022/03/17 00:22:08;;;;;;;27.13;20.85;;;11.60;95.60;;;;;;5050732;28;20037;-87
2022/03/17 00:24:37;;;;;;;26.85;20.50;;;11.60;95.70;;;;;;5050592;28;20506;-87
2022/03/17 00:27:05;;;;;;;26.45;21.00;;;11.60;95.80;;;;;;5034099;28;20045;-87
2022/03/17 00:29:35;;;;;;;27.38;20.10;;;11.60;95.90;;;;;;5033726;28;20401;-87
2022/03/17 00:32:00;;;;;;;26.75;19.58;;;11.60;96.00;;;;;;5050631;28;20072;-87
2022/03/17 00:34:26;;;;;;;26.33;21.75;;;11.60;96.10;;;;;;5050644;28;20075;-87
2022/03/17 00:36:52;;;;;;;27.08;21.48;;;11.60;96.20;;;;;;5050591;28;20056;-87
2022/03/17 00:39:17;;;;;;;28.10;21.33;;;11.60;96.20;;;;;;5050218;28;20429;-87
2022/03/17 00:41:44;;;;;;;25.33;20.83;;;11.60;96.30;;;;;;5050272;28;20383;-87
2022/03/17 00:44:11;;;;;;;26.13;20.60;;;11.60;96.20;;;;;;5050294;28;20417;-87
2022/03/17 00:46:36;;;;;;;25.77;21.98;;;11.50;96.30;;;;;;5050710;28;20041;-87
2022/03/17 00:49:03;;;;;;;28.35;20.42;;;11.50;96.20;;;;;;5050389;28;20571;-88
2022/03/17 00:51:29;;;;;;;26.73;21.23;;;11.50;96.40;;;;;;5049748;28;20036;-87
2022/03/17 00:53:55;;;;;;;25.80;19.75;;;11.60;96.50;;;;;;5050006;28;20090;-87
2022/03/17 00:56:20;;;;;;;25.60;20.92;;;11.50;96.40;;;;;;5050311;28;20041;-87
2022/03/17 00:58:48;;;;;;;26.23;19.98;;;11.60;96.60;;;;;;5049795;28;20379;-87
2022/03/17 01:01:15;;;;;;;28.08;21.42;;;11.50;96.50;;;;;;5050007;28;20032;-87
2022/03/17 01:03:42;;;;;;;28.30;21.83;;;11.50;96.50;;;;;;5033637;28;20516;-87
2022/03/17 01:06:08;;;;;;;26.10;20.48;;;11.50;96.60;;;;;;5050117;28;20397;-87
2022/03/17 01:08:33;;;;;;;29.15;22.38;;;11.50;96.60;;;;;;5049977;28;20033;-87
2022/03/17 01:10:59;;;;;;;26.05;21.02;;;11.50;96.70;;;;;;5049816;28;20037;-87
2022/03/17 01:13:24;;;;;;;25.42;20.85;;;11.50;96.60;;;;;;5049986;28;20077;-87
2022/03/17 01:15:50;;;;;;;26.38;20.48;;;11.50;96.80;;;;;;5050088;28;20045;-87
2022/03/17 01:18:15;;;;;;;27.08;21.35;;;11.50;96.70;;;;;;5050036;28;20037;-87
2022/03/17 01:20:41;;;;;;;26.77;20.85;;;11.50;96.70;;;;;;5049931;28;20044;-87
2022/03/17 01:23:07;;;;;;;28.38;23.70;;;11.50;96.70;;;;;;5033298;28;20498;-87
2022/03/17 01:25:33;;;;;;;26.85;21.50;;;11.50;96.70;;;;;;5050000;28;20045;-87
2022/03/17 01:27:59;;;;;;;25.65;20.60;;;11.50;96.60;;;;;;5050035;28;20041;-87
2022/03/17 01:30:25;;;;;;;26.83;21.33;;;11.50;97.00;;;;;;5049657;28;20103;-87
2022/03/17 01:32:50;;;;;;;25.65;20.35;;;11.50;96.80;;;;;;5050090;28;20033;-87
2022/03/17 01:35:16;;;;;;;26.58;20.95;;;11.50;96.70;;;;;;5049949;28;20136;-87
2022/03/17 01:37:41;;;;;;;24.00;20.33;;;11.50;96.70;;;;;;5049784;28;20489;-87
2022/03/17 01:40:09;;;;;;;27.23;21.58;;;11.50;96.70;;;;;;5032925;28;20035;-87
2022/03/17 01:42:34;;;;;;;26.00;21.25;;;11.50;96.80;;;;;;5049938;28;20508;-87
2022/03/17 01:45:00;;;;;;;25.45;20.73;;;11.50;96.80;;;;;;5050171;28;20041;-87
2022/03/17 01:47:29;;;;;;;25.83;20.73;;;11.50;96.80;;;;;;5049920;28;20524;-87
2022/03/17 01:49:57;;;;;;;28.08;21.88;;;11.50;96.90;;;;;;5049255;28;20045;-87
2022/03/17 01:52:23;;;;;;;25.35;21.05;;;11.50;96.80;;;;;;5049697;28;20114;-86
2022/03/17 01:54:50;;;;;;;27.33;20.73;;;11.50;96.90;;;;;;5049734;28;20395;-87
2022/03/17 01:57:16;;;;;;;26.13;21.73;;;11.50;97.00;;;;;;5049621;28;20041;-87
2022/03/17 01:59:41;;;;;;;26.98;21.90;;;11.50;97.20;;;;;;5049712;28;20075;-87
2022/03/17 02:02:12;;;;;;;29.10;22.40;;;11.50;97.20;;;;;;5049964;28;20551;-87
2022/03/17 02:04:41;;;;;;;26.92;21.80;;;11.50;97.30;;;;;;5049775;28;20091;-87
2022/03/17 02:07:08;;;;;;;28.63;20.95;;;11.50;97.50;;;;;;5033125;28;20033;-86
2022/03/17 02:09:35;;;;;;;24.95;20.67;;;11.50;97.60;;;;;;5033818;28;20036;-87
2022/03/17 02:14:53;;;;;;;29.60;22.88;;;11.50;98.20;;;;;;5053089;28;20057;-87
2022/03/17 02:17:21;;;;;;;28.58;20.92;;;11.50;98.70;;;;;;5053360;28;20405;-87
2022/03/17 02:19:48;;;;;;;28.60;22.08;;;11.40;98.70;;;;;;5052913;28;20431;-87
2022/03/17 02:22:17;;;;;;;26.98;21.77;;;11.40;98.60;;;;;;5053027;28;20544;-87
2022/03/17 02:27:30;;;;;;;28.50;21.92;;;11.40;98.60;;;;;;5052968;28;20079;-87
2022/03/17 02:29:56;;;;;;;25.38;21.88;;;11.40;98.80;;;;;;5052575;28;20037;-86
2022/03/17 02:32:22;;;;;;;29.48;22.45;;;11.40;98.80;;;;;;5052811;28;20048;-87
2022/03/17 02:34:48;;;;;;;25.70;20.92;;;11.40;99.00;;;;;;5052806;28;20037;-87
2022/03/17 02:37:15;;;;;;;25.77;21.73;;;11.40;99.20;;;;;;5052735;28;20041;-87
2022/03/17 02:39:41;;;;;;;27.65;22.65;;;11.40;99.00;;;;;;5052638;28;20045;-87
2022/03/17 02:42:06;;;;;;;26.38;22.55;;;11.40;99.00;;;;;;5052251;28;20048;-87
2022/03/17 02:44:32;;;;;;;32.47;22.73;;;11.40;99.10;;;;;;5052639;28;20094;-86
2022/03/17 02:46:58;;;;;;;26.48;21.67;;;11.40;99.10;;;;;;5052541;28;20048;-87
2022/03/17 02:49:24;;;;;;;25.35;20.95;;;11.40;99.00;;;;;;5052295;28;20048;-86
2022/03/17 02:51:50;;;;;;;27.77;22.05;;;11.40;99.10;;;;;;5035635;28;20116;-87
2022/03/17 02:54:15;;;;;;;26.70;22.10;;;11.40;99.20;;;;;;5052261;28;20128;-87
2022/03/17 02:56:41;;;;;;;26.85;21.73;;;11.40;99.20;;;;;;5052308;28;20515;-87
2022/03/17 02:59:06;;;;;;;27.85;22.55;;;11.40;99.20;;;;;;5052136;28;20040;-87
2022/03/17 03:01:34;;;;;;;26.80;22.00;;;11.40;99.20;;;;;;5052208;28;20179;-86
2022/03/17 03:04:00;;;;;;;28.30;22.58;;;11.40;99.20;;;;;;5052225;28;20069;-87
2022/03/17 03:06:25;;;;;;;26.00;22.30;;;11.40;99.30;;;;;;5052286;28;20118;-86
2022/03/17 03:08:51;;;;;;;26.35;22.45;;;11.40;99.30;;;;;;5052297;28;20048;-87
2022/03/17 03:11:16;;;;;;;26.33;22.73;;;11.40;99.30;;;;;;5051602;28;20037;-87
2022/03/17 03:13:43;;;;;;;27.65;22.73;;;11.40;99.40;;;;;;5051905;28;20051;-86
2022/03/17 03:16:08;;;;;;;26.77;22.27;;;11.40;99.40;;;;;;5052054;28;20528;-87
2022/03/17 03:18:34;;;;;;;27.63;22.67;;;11.40;99.40;;;;;;5052025;28;20041;-87
2022/03/17 03:20:59;;;;;;;25.83;22.35;;;11.40;99.40;;;;;;5051174;28;20037;-87
2022/03/17 03:23:25;;;;;;;28.63;20.45;;;11.40;99.40;;;;;;5051954;28;20106;-87
2022/03/17 03:25:50;;;;;;;28.92;23.52;;;11.40;99.30;;;;;;5051507;28;20033;-87
2022/03/17 03:28:16;;;;;;;27.65;22.33;;;11.40;99.40;;;;;;5051885;28;20045;-87
2022/03/17 03:30:42;;;;;;;27.58;23.38;;;11.40;99.50;;;;;;5051513;28;20048;-87
2022/03/17 03:33:08;;;;;;;27.23;22.38;;;11.40;99.60;;;;;;5052954;28;20037;-87
2022/03/17 03:38:21;;;;;;;27.35;23.08;;;11.40;99.60;;;;;;5051531;28;20041;-87
2022/03/17 03:40:47;;;;;;;27.63;22.70;;;11.40;99.60;;;;;;5051121;28;20041;-87
2022/03/17 03:43:12;;;;;;;28.45;23.20;;;11.40;99.60;;;;;;5052953;28;20036;-87
2022/03/17 03:45:38;;;;;;;27.50;23.08;;;11.40;99.70;;;;;;5051524;28;20033;-87
2022/03/17 03:48:04;;;;;;;28.17;23.30;;;11.40;99.70;;;;;;5051444;28;20459;-87
2022/03/17 03:50:30;;;;;;;26.95;21.98;;;11.40;99.70;;;;;;5051162;28;20041;-87
2022/03/17 03:52:57;;;;;;;26.13;23.27;;;11.40;99.70;;;;;;5051483;28;20045;-87
2022/03/17 03:55:22;;;;;;;28.10;22.58;;;11.40;99.80;;;;;;5051105;28;20126;-87
2022/03/17 03:57:48;;;;;;;26.83;23.40;;;11.40;99.80;;;;;;5051051;28;20091;-87
2022/03/17 04:00:36;;;;;;;26.42;22.15;;;11.40;99.90;;;;;;5050822;28;20040;-87
2022/03/17 04:03:05;;;;;;;27.20;23.42;;;11.40;99.80;;;;;;5050983;28;20044;-87
2022/03/17 04:05:33;;;;;;;32.90;23.95;;;11.40;99.80;;;;;;5051127;28;20106;-87
2022/03/17 04:07:59;;;;;;;28.73;23.63;;;11.40;99.90;;;;;;5034748;28;20467;-87
2022/03/17 04:10:28;;;;;;;29.98;22.60;;;11.40;99.90;;;;;;5051555;28;20052;-86
2022/03/17 04:12:55;;;;;;;28.65;22.67;;;11.40;99.90;;;;;;5053436;28;20110;-87
2022/03/17 04:15:20;;;;;;;27.63;24.40;;;11.50;99.90;;;;;;5052162;28;20094;-87
2022/03/17 04:17:46;;;;;;;27.15;23.63;;;11.40;99.90;;;;;;5051851;28;20036;-87
2022/03/17 04:20:12;;;;;;;29.90;24.48;;;11.50;99.90;;;;;;5050802;28;20037;-87
2022/03/17 04:22:37;;;;;;;29.35;24.38;;;11.50;99.90;;;;;;5051106;28;20090;-87
2022/03/17 04:25:04;;;;;;;29.08;23.65;;;11.50;99.90;;;;;;5050741;28;20091;-87
2022/03/17 04:27:30;;;;;;;28.27;23.75;;;11.50;99.90;;;;;;5050951;28;20051;-87
2022/03/17 04:29:55;;;;;;;27.70;24.83;;;11.50;99.90;;;;;;5050449;28;20511;-87
2022/03/17 04:32:21;;;;;;;29.13;24.73;;;11.50;99.90;;;;;;5049979;28;20037;-87
2022/03/17 04:34:46;;;;;;;28.75;24.25;;;11.50;99.90;;;;;;5050425;28;20047;-87
2022/03/17 04:37:12;;;;;;;29.02;25.13;;;11.50;99.90;;;;;;5050539;28;20486;-86
2022/03/17 04:39:38;;;;;;;29.52;26.00;;;11.50;99.90;;;;;;5050092;28;20086;-87
2022/03/17 04:42:04;;;;;;;34.13;28.58;;;11.50;99.90;;;;;;5050360;28;20048;-87
2022/03/17 04:44:29;;;;;;;33.53;28.15;;;11.50;99.90;;;;;;5050720;28;20409;-87
2022/03/17 04:46:55;;;;;;;35.08;28.05;;;11.50;99.90;;;;;;5050738;28;20494;-87
2022/03/17 04:49:20;;;;;;;34.85;28.10;;;11.50;99.90;;;;;;5050027;28;20068;-87
2022/03/17 04:51:46;;;;;;;41.13;29.48;;;11.40;99.90;;;;;;5050085;28;20064;-87
2022/03/17 04:54:11;;;;;;;37.45;29.40;;;11.40;99.90;;;;;;5050182;28;20131;-87
2022/03/17 04:56:37;;;;;;;38.35;31.17;;;11.30;99.90;;;;;;5050297;28;20094;-87
2022/03/17 04:59:02;;;;;;;38.67;33.50;;;11.30;99.90;;;;;;5050561;28;20036;-87
2022/03/17 05:01:28;;;;;;;39.80;33.25;;;11.20;99.90;;;;;;5049838;28;20490;-87
2022/03/17 05:03:54;;;;;;;41.78;33.22;;;11.10;99.90;;;;;;5050299;28;20037;-87
2022/03/17 05:06:20;;;;;;;43.15;35.50;;;11.10;99.90;;;;;;5050385;28;20513;-87
2022/03/17 05:08:46;;;;;;;42.90;34.30;;;11.00;99.90;;;;;;5050454;28;20494;-86
2022/03/17 05:11:13;;;;;;;45.33;35.33;;;10.90;99.90;;;;;;5033369;28;20048;-87
2022/03/17 05:13:39;;;;;;;42.13;33.20;;;10.90;99.90;;;;;;5050077;28;20535;-87
2022/03/17 05:16:05;;;;;;;45.85;36.10;;;10.80;99.90;;;;;;5033411;28;20072;-87
2022/03/17 05:18:31;;;;;;;43.58;35.22;;;10.80;99.90;;;;;;5049924;28;20151;-87
2022/03/17 05:20:57;;;;;;;46.10;35.88;;;10.80;99.90;;;;;;5033132;28;20176;-87
2022/03/17 05:23:22;;;;;;;44.45;34.65;;;10.70;99.90;;;;;;5050093;28;20072;-87
2022/03/17 05:25:49;;;;;;;45.80;35.75;;;10.70;99.90;;;;;;5050058;28;20048;-87
2022/03/17 05:28:16;;;;;;;46.08;35.70;;;10.70;99.90;;;;;;5033622;28;20036;-87
2022/03/17 05:30:43;;;;;;;42.10;33.30;;;10.70;99.90;;;;;;5049643;28;20037;-87
2022/03/17 05:33:10;;;;;;;30.50;21.95;;;10.60;99.90;;;;;;5033241;28;20120;-87
2022/03/17 05:35:39;;;;;;;23.35;15.68;;;10.60;99.90;;;;;;5049854;28;20568;-87
2022/03/17 05:38:05;;;;;;;13.55;8.10;;;10.50;99.90;;;;;;5049671;28;20037;-87
2022/03/17 05:40:31;;;;;;;10.65;6.38;;;10.30;99.90;;;;;;5049874;28;20051;-87
2022/03/17 05:42:59;;;;;;;11.07;6.95;;;10.10;99.90;;;;;;5049990;28;20072;-87
2022/03/17 05:45:26;;;;;;;10.82;5.28;;;9.90;99.90;;;;;;5053640;28;20041;-87
2022/03/17 05:47:54;;;;;;;10.07;5.93;;;9.70;99.90;;;;;;5053456;28;20047;-87
2022/03/17 05:50:22;;;;;;;9.52;5.20;;;9.60;99.90;;;;;;5053074;28;20041;-86
2022/03/17 05:52:49;;;;;;;10.80;6.07;;;9.40;99.90;;;;;;5053657;28;20052;-87
2022/03/17 05:55:17;;;;;;;11.43;6.50;;;9.30;99.90;;;;;;5053648;28;20104;-87
2022/03/17 05:57:45;;;;;;;11.30;6.82;;;9.20;99.90;;;;;;5053771;28;20041;-87
2022/03/17 06:00:17;;;;;;;11.77;6.70;;;9.20;99.90;;;;;;5052896;28;20122;-87
2022/03/17 06:02:43;;;;;;;10.45;5.90;;;9.10;99.90;;;;;;5036916;28;20029;-86
2022/03/17 06:05:09;;;;;;;10.90;7.15;;;9.10;99.90;;;;;;5053356;28;20120;-87
2022/03/17 06:07:38;;;;;;;11.30;6.82;;;9.00;99.90;;;;;;5053430;28;20091;-87
2022/03/17 06:10:13;;;;;;;12.80;6.78;;;9.00;99.90;;;;;;5052882;28;20087;-87
2022/03/17 06:12:39;;;;;;;13.52;7.60;;;8.90;99.90;;;;;;5053011;28;20083;-86
2022/03/17 06:15:07;;;;;;;13.48;7.22;;;8.90;99.90;;;;;;5053108;28;20041;-86
2022/03/17 06:17:44;;;;;;;15.55;7.30;;;8.80;99.90;;;;;;5053196;28;20043;-87
2022/03/17 06:20:12;;;;;;;15.15;8.63;;;8.90;99.90;;;;;;5035884;28;20037;-87
2022/03/17 06:22:40;;;;;;;13.80;6.95;;;8.80;99.90;;;;;;5053380;28;20436;-86
2022/03/17 06:25:08;;;;;;;13.35;7.10;;;8.80;99.90;;;;;;5052883;28;20044;-87
2022/03/17 06:27:37;;;;;;;14.32;7.85;;;8.80;99.90;;;;;;5052992;28;20037;-86
2022/03/17 06:30:04;;;;;;;17.55;8.57;;;8.70;99.90;;;;;;5035789;28;20051;-86
2022/03/17 06:32:30;;;;;;;18.30;7.88;;;8.70;99.90;;;;;;5036232;28;20517;-86
2022/03/17 06:34:55;;;;;;;15.55;7.93;;;8.70;99.90;;;;;;5036119;28;20083;-86
2022/03/17 06:37:21;;;;;;;17.88;7.68;;;8.70;99.90;;;;;;5036133;28;20048;-86
2022/03/17 06:39:47;;;;;;;16.88;8.05;;;8.70;99.90;;;;;;5052226;28;20072;-86
2022/03/17 06:42:12;;;;;;;16.05;7.10;;;8.70;99.90;;;;;;5035912;28;20039;-86
2022/03/17 06:44:38;;;;;;;14.57;7.35;;;8.70;99.90;;;;;;5052975;28;20048;-86
2022/03/17 06:47:04;;;;;;;15.90;6.78;;;8.70;99.90;;;;;;5052550;28;20044;-86
2022/03/17 06:49:29;;;;;;;13.88;6.50;;;8.70;99.90;;;;;;5053494;28;20120;-86
2022/03/17 06:51:56;;;;;;;14.00;6.60;;;8.70;99.90;;;;;;5052331;28;20049;-86
2022/03/17 06:54:21;;;;;;;15.35;6.70;;;8.60;99.90;;;;;;5035370;28;20046;-86
2022/03/17 06:56:47;;;;;;;12.82;6.63;;;8.60;99.90;;;;;;5051747;28;20056;-86
2022/03/17 06:59:12;;;;;;;12.02;5.72;;;8.60;99.90;;;;;;5052281;28;20039;-87
2022/03/17 07:01:38;;;;;;;17.27;7.15;;;8.60;99.90;;;;;;5051942;28;20068;-87
2022/03/17 07:04:03;;;;;;;13.95;6.07;;;8.60;99.90;;;;;;5052376;28;20398;-87
2022/03/17 07:06:29;;;;;;;16.42;5.53;;;8.60;99.90;;;;;;5052241;28;20516;-87
2022/03/17 07:08:54;;;;;;;14.20;5.38;;;8.50;99.90;;;;;;5052046;28;20037;-86
2022/03/17 07:11:21;;;;;;;14.20;5.40;;;8.50;99.90;;;;;;5051703;28;20068;-87
2022/03/17 07:13:47;;;;;;;11.23;4.72;;;8.50;99.90;;;;;;5035445;28;20623;-87
2022/03/17 07:16:13;;;;;;;17.23;5.72;;;8.50;99.90;;;;;;5051982;28;20073;-87
2022/03/17 07:18:38;;;;;;;13.65;4.38;;;8.50;99.90;;;;;;5052004;28;20128;-87
2022/03/17 07:21:04;;;;;;;10.05;3.67;;;8.50;99.90;;;;;;5051493;28;20123;-87
2022/03/17 07:23:29;;;;;;;11.27;2.90;;;8.50;99.90;;;;;;5051854;28;20072;-87
2022/03/17 07:25:55;;;;;;;12.48;3.30;;;8.50;99.90;;;;;;5035346;28;20049;-87
2022/03/17 07:28:21;;;;;;;12.82;4.00;;;8.50;99.90;;;;;;5051773;28;20040;-87
2022/03/17 07:30:47;;;;;;;12.52;3.65;;;8.50;99.90;;;;;;5051533;28;20417;-86
2022/03/17 07:33:13;;;;;;;11.02;3.63;;;8.60;99.90;;;;;;5036593;28;20041;-86
2022/03/17 07:35:39;;;;;;;12.57;2.88;;;8.60;99.90;;;;;;5031112;28;20041;-87
2022/03/17 07:38:05;;;;;;;7.07;2.60;;;8.60;99.90;;;;;;5014750;28;20501;-87
2022/03/17 07:40:31;;;;;;;13.20;3.33;;;8.70;99.90;;;;;;5031636;28;20037;-87
2022/03/17 07:42:57;;;;;;;17.17;3.65;;;8.70;99.90;;;;;;5031593;28;20533;-86
2022/03/17 07:45:23;;;;;;;13.32;3.33;;;8.70;99.90;;;;;;5029950;28;20395;-86
2022/03/17 07:47:50;;;;;;;12.07;3.05;;;8.70;99.90;;;;;;5031461;28;20042;-86
2022/03/17 07:50:18;;;;;;;12.90;2.75;;;8.70;99.90;;;;;;5014323;28;20107;-86
2022/03/17 07:52:43;;;;;;;12.13;3.10;;;8.70;99.90;;;;;;5031390;28;20034;-86
2022/03/17 07:55:09;;;;;;;12.15;3.03;;;8.60;99.90;;;;;;5014910;28;20532;-86
2022/03/17 07:57:37;;;;;;;13.63;3.05;;;8.60;99.90;;;;;;5031317;28;20184;-86
2022/03/17 08:00:05;;;;;;;13.15;3.15;;;8.50;99.90;;;;;;5031103;28;20442;-86
2022/03/17 08:02:31;;;;;;;10.93;3.55;;;8.50;99.90;;;;;;5014671;28;20041;-86
2022/03/17 08:04:57;;;;;;;18.60;3.45;;;8.50;99.90;;;;;;5031103;28;20055;-86
2022/03/17 08:07:23;;;;;;;12.88;3.00;;;8.50;99.90;;;;;;5031258;28;20045;-86
2022/03/17 08:09:48;;;;;;;12.30;2.83;;;8.50;99.90;;;;;;5014615;28;20552;-86
2022/03/17 08:12:14;;;;;;;14.82;3.10;;;8.50;99.90;;;;;;5014467;28;20563;-86
2022/03/17 08:14:40;;;;;;;11.35;2.38;;;8.50;99.90;;;;;;5030971;28;20056;-86
2022/03/17 08:17:05;;;;;;;14.73;2.38;;;8.40;99.90;;;;;;5030692;28;20129;-86
2022/03/17 08:19:31;;;;;;;11.10;1.95;;;8.40;99.90;;;;;;5013985;28;20091;-86
2022/03/17 08:21:57;;;;;;;15.32;2.08;;;8.50;99.90;;;;;;5030841;28;20045;-86
2022/03/17 08:24:23;;;;;;;11.43;1.77;;;8.40;99.90;;;;;;5014150;28;20084;-86
2022/03/17 08:26:48;;;;;;;11.40;1.90;;;8.50;99.90;;;;;;5014019;28;20077;-87
2022/03/17 08:29:14;;;;;;;13.57;2.05;;;8.50;99.90;;;;;;5030187;28;20048;-87
2022/03/17 08:31:40;;;;;;;12.10;2.15;;;8.50;99.90;;;;;;5029498;28;20045;-87
2022/03/17 08:34:06;;;;;;;6.97;1.35;;;8.60;99.90;;;;;;5029551;28;20029;-87
2022/03/17 08:36:32;;;;;;;16.27;2.15;;;8.60;99.90;;;;;;5013621;28;20047;-87
2022/03/17 08:38:58;;;;;;;12.38;2.00;;;8.70;99.90;;;;;;5030519;28;20469;-87
2022/03/17 08:41:24;;;;;;;12.35;2.28;;;8.70;99.90;;;;;;5013639;28;20475;-87
2022/03/17 08:43:51;;;;;;;11.35;2.38;;;8.70;99.90;;;;;;5030202;28;20033;-87
2022/03/17 08:51:50;;;;;;;16.10;2.25;;;8.70;99.90;;;;;;5029574;28;20052;-87
2022/03/17 08:54:16;;;;;;;12.27;2.35;;;8.70;99.90;;;;;;5013679;28;20049;-87
2022/03/17 08:56:42;;;;;;;14.13;2.50;;;8.70;99.90;;;;;;5013651;28;20037;-87
2022/03/17 08:59:10;;;;;;;10.52;1.70;;;8.70;99.90;;;;;;5029959;28;20048;-87
2022/03/17 09:01:37;;;;;;;15.10;2.67;;;8.60;99.90;;;;;;5029556;28;20037;-86
2022/03/17 09:04:03;;;;;;;15.07;2.05;;;8.60;99.90;;;;;;5030216;28;20510;-86
2022/03/17 09:06:29;;;;;;;16.90;2.30;;;8.60;99.90;;;;;;5030013;28;20448;-86
2022/03/17 09:08:54;;;;;;;12.23;2.35;;;8.60;99.90;;;;;;5029889;28;20041;-86
2022/03/17 09:11:30;;;;;;;13.77;2.60;;;8.70;99.90;;;;;;5038684;28;20041;-86
2022/03/17 09:13:58;;;;;;;16.00;2.78;;;8.70;99.90;;;;;;5031205;28;20041;-87
2022/03/17 09:16:23;;;;;;;14.48;2.88;;;8.70;99.90;;;;;;5031054;28;20512;-87
2022/03/17 09:18:49;;;;;;;13.70;2.53;;;8.70;99.90;;;;;;5032716;28;20120;-87
2022/03/17 09:21:15;;;;;;;13.65;2.10;;;8.80;99.90;;;;;;5017482;28;20502;-86
2022/03/17 09:23:41;;;;;;;14.25;2.80;;;8.80;99.90;;;;;;5034320;28;20045;-87
2022/03/17 09:26:06;;;;;;;10.95;2.42;;;8.80;99.90;;;;;;5017310;28;20048;-87
2022/03/17 09:28:32;;;;;;;15.63;2.45;;;8.90;99.90;;;;;;5033720;28;20049;-87
2022/03/17 09:30:58;;;;;;;15.60;2.15;;;8.90;99.90;;;;;;5033209;28;20589;-87
2022/03/17 09:33:25;;;;;;;9.27;2.25;;;8.90;99.90;;;;;;5033688;28;20408;-87
2022/03/17 09:35:55;;;;;;;16.52;2.72;;;9.00;99.90;;;;;;5033309;28;20045;-87
2022/03/17 09:38:21;;;;;;;14.77;2.42;;;9.00;99.90;;;;;;5033550;28;20041;-87
2022/03/17 09:40:46;;;;;;;14.18;2.17;;;9.10;99.90;;;;;;5016666;28;20040;-87
2022/03/17 09:43:18;;;;;;;17.83;2.42;;;9.10;99.90;;;;;;5033519;28;20034;-87
2022/03/17 09:45:46;;;;;;;19.77;2.43;;;9.20;99.90;;;;;;5016984;28;20041;-87
2022/03/17 09:48:14;;;;;;;14.02;2.88;;;9.20;99.90;;;;;;5033559;28;20044;-86
2022/03/17 09:50:40;;;;;;;14.93;2.80;;;9.20;99.90;;;;;;5032779;28;20045;-87
2022/03/17 09:53:07;;;;;;;14.00;2.58;;;9.30;99.90;;;;;;5017149;28;20045;-87
2022/03/17 09:55:34;;;;;;;15.45;2.60;;;9.30;99.90;;;;;;5016504;28;20057;-87
2022/03/17 09:58:01;;;;;;;11.20;2.30;;;9.30;99.90;;;;;;5033222;28;20672;-86
2022/03/17 10:00:47;;;;;;;18.40;2.35;;;9.30;99.90;;;;;;5032720;28;20041;-87
2022/03/17 10:03:12;;;;;;;14.95;2.47;;;9.30;99.90;;;;;;5033282;28;20557;-87
2022/03/17 10:05:37;;;;;;;12.63;3.58;;;9.40;99.90;;;;;;5032966;28;20494;-87
2022/03/17 10:08:03;;;;;;;13.18;2.30;;;9.40;99.90;;;;;;5032734;28;20045;-87
2022/03/17 10:10:37;;;;;;;16.42;3.03;;;9.50;99.90;;;;;;5032489;28;20041;-87
2022/03/17 10:13:14;;;;;;;11.15;2.20;;;9.50;99.90;;;;;;5016342;28;20041;-87
2022/03/17 10:15:41;;;;;;;15.90;2.85;;;9.60;99.90;;;;;;5016388;28;20055;-86
2022/03/17 10:18:25;;;;;;;12.45;2.03;;;9.60;99.90;;;;;;5032782;28;20038;-87
2022/03/17 10:21:08;;;;;;;13.70;2.17;;;9.70;99.90;;;;;;5032350;28;20503;-87
2022/03/17 10:23:54;;;;;;;15.77;2.75;;;9.70;99.90;;;;;;5032643;28;20048;-87
2022/03/17 10:26:39;;;;;;;11.95;2.30;;;9.80;99.90;;;;;;5032910;28;20394;-87
2022/03/17 10:29:25;;;;;;;10.93;1.80;;;9.80;99.90;;;;;;5032772;28;20045;-87
2022/03/17 10:31:59;;;;;;;15.60;3.60;;;9.80;99.90;;;;;;5031914;28;20100;-87
2022/03/17 10:34:28;;;;;;;14.88;3.00;;;9.80;99.90;;;;;;5032335;28;20046;-86
2022/03/17 10:37:08;;;;;;;11.57;1.70;;;9.80;99.90;;;;;;5015986;28;20073;-87
2022/03/17 10:39:49;;;;;;;10.90;2.17;;;9.80;99.90;;;;;;5032073;28;20040;-86
2022/03/17 10:42:17;;;;;;;12.82;2.63;;;9.80;99.90;;;;;;5032161;28;20044;-87
2022/03/17 10:44:55;;;;;;;15.05;2.75;;;9.90;99.90;;;;;;5031722;28;20033;-86
2022/03/17 10:47:28;;;;;;;15.93;2.45;;;10.00;99.90;;;;;;5031050;28;20048;-86
2022/03/17 10:50:04;;;;;;;10.75;2.15;;;10.30;99.90;;;;;;5031571;28;20049;-86
2022/03/17 10:52:47;;;;;;;14.13;2.28;;;10.60;99.90;;;;;;5015571;28;20034;-86
2022/03/17 10:55:13;;;;;;;14.13;2.35;;;10.70;99.90;;;;;;5032409;28;20445;-86
2022/03/17 10:57:39;;;;;;;13.48;2.53;;;10.70;99.90;;;;;;5032087;28;20095;-87
2022/03/17 11:00:09;;;;;;;10.70;2.17;;;10.80;99.90;;;;;;5031445;28;20498;-87
2022/03/17 11:02:37;;;;;;;10.93;1.85;;;10.90;99.90;;;;;;5031736;28;20517;-87
2022/03/17 11:05:06;;;;;;;11.20;2.22;;;11.20;99.90;;;;;;5032042;28;20045;-86
2022/03/17 11:07:32;;;;;;;9.55;2.20;;;11.50;99.90;;;;;;5031989;28;20045;-87
2022/03/17 11:10:07;;;;;;;12.65;2.38;;;11.60;99.90;;;;;;5031403;28;20053;-86
2022/03/17 11:12:34;;;;;;;11.30;1.55;;;11.90;99.90;;;;;;5031957;28;20076;-87
2022/03/17 11:15:01;;;;;;;12.00;1.92;;;12.10;99.90;;;;;;5031600;28;20050;-87
2022/03/17 11:17:35;;;;;;;10.02;1.92;;;12.30;99.80;;;;;;5015299;28;20041;-87
2022/03/17 11:20:05;;;;;;;8.85;2.00;;;12.50;99.00;;;;;;5031261;28;20387;-87
2022/03/17 11:22:32;;;;;;;11.75;1.83;;;12.70;98.40;;;;;;5015215;28;20052;-87
2022/03/17 11:25:19;;;;;;;11.27;2.05;;;12.90;97.80;;;;;;5031965;28;20088;-87
2022/03/17 11:27:47;;;;;;;8.80;1.65;;;13.00;96.10;;;;;;5031321;28;20041;-87
2022/03/17 11:30:14;;;;;;;10.75;2.38;;;13.00;96.20;;;;;;5031139;28;20038;-88
2022/03/17 11:32:55;;;;;;;12.43;2.20;;;12.90;95.50;;;;;;5031343;28;20122;-88
2022/03/17 11:35:25;;;;;;;9.32;2.05;;;12.90;95.80;;;;;;5031491;28;20566;-88
2022/03/17 11:38:14;;;;;;;9.90;1.63;;;13.20;96.60;;;;;;5030890;28;20037;-88
2022/03/17 11:41:08;;;;;;;11.98;1.92;;;13.40;95.50;;;;;;5030951;28;20119;-88
2022/03/17 11:43:46;;;;;;;11.32;1.88;;;13.60;92.70;;;;;;5031068;28;20041;-88
2022/03/17 11:46:13;;;;;;;12.75;2.33;;;13.60;94.20;;;;;;5031051;28;20049;-87
2022/03/17 11:48:40;;;;;;;11.50;1.98;;;13.50;92.70;;;;;;5014595;28;20041;-87
2022/03/17 11:51:08;;;;;;;11.23;2.25;;;13.50;93.00;;;;;;5030696;28;20041;-87
2022/03/17 11:53:44;;;;;;;11.05;2.42;;;13.40;91.80;;;;;;5031100;28;20045;-87
2022/03/17 11:56:11;;;;;;;12.20;2.20;;;13.50;90.90;;;;;;5029946;28;20387;-87
2022/03/17 11:58:40;;;;;;;10.25;2.08;;;13.60;90.50;;;;;;5014734;28;20124;-87
2022/03/17 12:01:13;;;;;;;12.32;2.53;;;13.60;90.10;;;;;;5014436;28;20514;-87
2022/03/17 12:03:44;;;;;;;12.75;2.42;;;13.60;87.80;;;;;;5031377;28;20132;-87
2022/03/17 12:06:20;;;;;;;11.20;2.50;;;13.80;88.30;;;;;;5031253;28;20037;-88
2022/03/17 12:09:11;;;;;;;12.63;2.70;;;13.90;87.80;;;;;;5014569;28;20045;-87
2022/03/17 12:11:46;;;;;;;11.30;2.17;;;14.20;88.20;;;;;;5014427;28;20067;-87
2022/03/17 12:14:16;;;;;;;8.85;2.03;;;14.30;84.80;;;;;;5031109;28;20108;-87
2022/03/17 12:17:09;;;;;;;11.57;2.20;;;14.60;84.20;;;;;;5031130;28;20080;-87
2022/03/17 12:19:36;;;;;;;8.38;1.80;;;14.90;81.50;;;;;;5030685;28;20096;-87
2022/03/17 12:22:04;;;;;;;12.52;2.53;;;14.90;80.60;;;;;;5030835;28;20475;-87
2022/03/17 12:24:39;;;;;;;9.15;1.98;;;14.90;77.60;;;;;;5014570;28;20498;-88
2022/03/17 12:27:17;;;;;;;9.30;2.60;;;15.00;78.40;;;;;;5030716;28;20132;-88
2022/03/17 12:29:44;;;;;;;10.93;2.20;;;15.10;76.70;;;;;;5013997;28;20510;-88
2022/03/17 12:32:12;;;;;;;11.23;2.95;;;15.10;76.50;;;;;;5030612;28;20045;-88
2022/03/17 12:34:38;;;;;;;14.02;2.92;;;15.30;75.90;;;;;;5030951;28;20311;-87
2022/03/17 12:37:06;;;;;;;10.50;2.72;;;15.60;73.60;;;;;;5030556;28;20087;-88
2022/03/17 12:39:33;;;;;;;11.32;2.55;;;15.60;72.40;;;;;;5014257;28;20291;-87
2022/03/17 12:42:00;;;;;;;11.57;2.60;;;15.40;71.30;;;;;;5030675;28;20041;-87
2022/03/17 12:44:26;;;;;;;11.18;2.63;;;15.10;71.30;;;;;;5030732;28;20118;-87
2022/03/17 12:46:53;;;;;;;11.43;2.40;;;14.80;69.80;;;;;;5030823;28;20041;-87
2022/03/17 12:49:19;;;;;;;12.32;3.13;;;14.60;70.80;;;;;;5030753;28;20041;-87
2022/03/17 12:51:46;;;;;;;13.77;2.40;;;14.90;74.70;;;;;;5013567;28;20045;-87